Terminal Aerodrome Forecast
Issued by NWS Wakefield, VA

Home | Current Version | Previous Version | Text Only | Print | Product List | Glossary On
Versions: 1 2 3 4 5 6 7 8 9 10 11 12
482
FTUS41 KAKQ 271732
TAFRIC
TAF
KRIC 271732Z 2718/2818 21010KT P6SM SCT060
     FM272100 22009KT P6SM VCTS BKN050CB
     FM280000 27004KT P6SM VCSH BKN045
     FM280600 VRB03KT P6SM OVC050
     FM281000 VRB03KT P6SM OVC025
     FM281500 25004KT P6SM -SHRA OVC035=

USA.gov is the U.S. government's official web portal to all federal, state and local government web resources and services.